Time;durP1;ratioP1;P1;durP2;ratioP2;P2;SDS_P1;SDS_P2;PMS_P1;PMS_P2;Temp;Humidity;BMP_temperature;BMP_pressure;BME280_temperature;BME280_humidity;BME280_pressure;Samples;Min_cycle;Max_cycle;Signal;HPM_P1;HPM_P2
2023/09/03 00:00:58;;;;;;;9.73;8.73;;;15.50;99.90;;;;;;5073660;28;20435;-60
2023/09/03 00:03:26;;;;;;;10.23;9.13;;;15.50;99.90;;;;;;5073522;28;20822;-60
2023/09/03 00:05:54;;;;;;;9.10;8.20;;;15.50;99.90;;;;;;5073804;28;20439;-59
2023/09/03 00:08:22;;;;;;;9.17;8.30;;;15.40;99.90;;;;;;5074039;28;20454;-59
2023/09/03 00:10:50;;;;;;;8.33;7.53;;;15.40;99.90;;;;;;5073384;28;20470;-59
2023/09/03 00:13:16;;;;;;;9.00;7.90;;;15.30;99.90;;;;;;5073596;28;20446;-60
2023/09/03 00:15:43;;;;;;;11.73;8.10;;;15.30;99.90;;;;;;5073741;28;20434;-60
2023/09/03 00:18:11;;;;;;;10.13;8.40;;;15.30;99.90;;;;;;5073205;28;20482;-58
2023/09/03 00:20:39;;;;;;;9.37;7.40;;;15.30;99.90;;;;;;5074078;28;20558;-60
2023/09/03 00:23:06;;;;;;;10.47;8.00;;;15.30;99.90;;;;;;5073945;28;20439;-59
2023/09/03 00:25:36;;;;;;;11.10;9.07;;;15.20;99.90;;;;;;5073625;28;20800;-60
2023/09/03 00:28:03;;;;;;;12.87;9.40;;;15.20;99.90;;;;;;5076191;28;20420;-59
2023/09/03 00:30:30;;;;;;;10.60;8.80;;;15.20;99.90;;;;;;5077910;28;20455;-59
2023/09/03 00:32:57;;;;;;;10.70;8.60;;;15.20;99.90;;;;;;5077337;28;20439;-59
2023/09/03 00:35:24;;;;;;;10.47;8.60;;;15.20;99.90;;;;;;5077530;28;20431;-59
2023/09/03 00:37:52;;;;;;;11.53;9.33;;;15.10;99.90;;;;;;5077595;28;20501;-60
2023/09/03 00:40:19;;;;;;;14.60;10.43;;;15.10;99.90;;;;;;5077516;28;20461;-59
2023/09/03 00:42:45;;;;;;;11.33;10.13;;;15.10;99.90;;;;;;5076889;28;20451;-60
2023/09/03 00:45:12;;;;;;;12.70;10.60;;;15.00;99.90;;;;;;5077157;28;20445;-60
2023/09/03 00:47:39;;;;;;;11.20;10.00;;;15.00;99.90;;;;;;5076911;28;20431;-60
2023/09/03 00:50:08;;;;;;;11.63;10.40;;;14.90;99.90;;;;;;5076791;28;20461;-60
2023/09/03 00:52:35;;;;;;;11.03;9.93;;;14.90;99.90;;;;;;5077171;28;20445;-60
2023/09/03 00:55:03;;;;;;;11.60;10.50;;;14.80;99.90;;;;;;5076351;28;20449;-60
2023/09/03 00:57:30;;;;;;;11.40;10.20;;;14.80;99.90;;;;;;5076745;28;20493;-60
2023/09/03 00:59:58;;;;;;;10.93;9.83;;;14.70;99.90;;;;;;5076581;28;20984;-60
2023/09/03 01:02:25;;;;;;;13.07;10.93;;;14.70;99.90;;;;;;5076438;28;20496;-59
2023/09/03 01:04:52;;;;;;;13.27;11.87;;;14.70;99.90;;;;;;5076964;28;20439;-61
2023/09/03 01:07:19;;;;;;;12.87;10.30;;;14.60;99.90;;;;;;5076833;28;20442;-60
2023/09/03 01:09:45;;;;;;;10.10;9.10;;;14.60;99.90;;;;;;5076649;28;20972;-59
2023/09/03 01:12:20;;;;;;;11.63;10.43;;;14.60;99.90;;;;;;5076569;28;20434;-60
2023/09/03 01:14:54;;;;;;;11.90;9.67;;;14.60;99.90;;;;;;5076725;28;20423;-60
2023/09/03 01:17:29;;;;;;;10.13;9.13;;;14.60;99.90;;;;;;5076516;28;20466;-60
2023/09/03 01:20:06;;;;;;;10.00;9.00;;;14.60;99.90;;;;;;5075928;28;20474;-60
2023/09/03 01:22:51;;;;;;;13.00;10.50;;;14.60;99.90;;;;;;5076571;28;20423;-60
2023/09/03 01:25:35;;;;;;;11.37;10.27;;;14.60;99.90;;;;;;5076525;28;20426;-59
2023/09/03 01:28:17;;;;;;;13.13;10.23;;;14.50;99.90;;;;;;5076138;28;20419;-59
2023/09/03 01:30:44;;;;;;;10.33;9.33;;;14.50;99.90;;;;;;5075669;28;20466;-59
2023/09/03 01:33:11;;;;;;;12.70;10.63;;;14.40;99.90;;;;;;5076267;28;20446;-59
2023/09/03 01:35:39;;;;;;;15.07;10.87;;;14.40;99.90;;;;;;5075587;28;20522;-59
2023/09/03 01:38:06;;;;;;;10.73;9.70;;;14.40;99.90;;;;;;5076801;28;20478;-60
2023/09/03 01:40:33;;;;;;;12.07;10.33;;;14.40;99.90;;;;;;5075437;28;20830;-59
2023/09/03 01:42:59;;;;;;;11.63;10.43;;;14.40;99.90;;;;;;5076102;28;20446;-59
2023/09/03 01:45:34;;;;;;;14.67;11.90;;;14.40;99.90;;;;;;5075763;28;20450;-60
2023/09/03 01:48:08;;;;;;;10.53;9.43;;;14.40;99.90;;;;;;5076020;28;20430;-60
2023/09/03 01:50:43;;;;;;;12.93;10.50;;;14.40;99.90;;;;;;5075957;28;20474;-59
2023/09/03 01:53:18;;;;;;;12.67;11.37;;;14.50;99.90;;;;;;5076046;28;20433;-60
2023/09/03 01:55:51;;;;;;;10.40;9.30;;;14.40;99.90;;;;;;5076248;28;20430;-60
2023/09/03 01:58:21;;;;;;;12.97;11.37;;;14.40;99.90;;;;;;5075993;28;20498;-60
2023/09/03 02:00:50;;;;;;;9.73;8.80;;;14.40;99.90;;;;;;5075756;28;20459;-59
2023/09/03 02:03:17;;;;;;;10.83;9.30;;;14.40;99.90;;;;;;5075587;28;20443;-60
2023/09/03 02:05:44;;;;;;;10.73;9.23;;;14.40;99.90;;;;;;5075383;28;20435;-59
2023/09/03 02:08:12;;;;;;;10.90;9.90;;;14.30;99.90;;;;;;5075520;28;20435;-59
2023/09/03 02:10:38;;;;;;;13.10;9.17;;;14.30;99.90;;;;;;5075371;28;20467;-60
2023/09/03 02:13:05;;;;;;;10.80;9.70;;;14.30;99.90;;;;;;5075088;28;20929;-59
2023/09/03 02:15:32;;;;;;;12.63;8.80;;;14.30;99.90;;;;;;5075665;28;20446;-59
2023/09/03 02:18:00;;;;;;;14.00;8.70;;;14.20;99.90;;;;;;5075719;28;20818;-59
2023/09/03 02:20:27;;;;;;;9.37;8.37;;;14.20;99.90;;;;;;5075171;28;20499;-60
2023/09/03 02:22:53;;;;;;;9.90;8.90;;;14.20;99.90;;;;;;5074955;28;20443;-60
2023/09/03 02:25:20;;;;;;;10.13;9.13;;;14.20;99.90;;;;;;5074975;28;20439;-60
2023/09/03 02:27:47;;;;;;;9.50;8.60;;;14.10;99.90;;;;;;5075010;28;20457;-59
2023/09/03 02:30:14;;;;;;;10.00;8.97;;;14.10;99.90;;;;;;5074533;28;20825;-59
2023/09/03 02:32:40;;;;;;;11.90;10.00;;;14.10;99.90;;;;;;5075593;28;20446;-59
2023/09/03 02:35:09;;;;;;;11.00;9.60;;;14.10;99.90;;;;;;5086213;28;20451;-59
2023/09/03 02:37:35;;;;;;;10.17;9.17;;;14.10;99.90;;;;;;5081796;28;21022;-59
2023/09/03 02:40:02;;;;;;;10.43;9.40;;;14.00;99.90;;;;;;5074875;28;20459;-59
2023/09/03 02:42:29;;;;;;;12.17;9.70;;;14.00;99.90;;;;;;5074818;28;20443;-59
2023/09/03 02:44:56;;;;;;;13.87;11.17;;;14.00;99.90;;;;;;5074840;28;20441;-59
2023/09/03 02:47:23;;;;;;;11.40;9.93;;;14.00;99.90;;;;;;5074783;28;20454;-59
2023/09/03 02:49:49;;;;;;;11.33;10.23;;;13.90;99.90;;;;;;5073907;28;20984;-59
2023/09/03 02:52:17;;;;;;;11.73;10.53;;;13.90;99.90;;;;;;5073376;28;20439;-59
2023/09/03 02:54:44;;;;;;;12.63;10.50;;;13.90;99.90;;;;;;5074254;28;20964;-59
2023/09/03 02:57:11;;;;;;;12.87;10.47;;;13.90;99.90;;;;;;5073882;28;20840;-59
2023/09/03 02:59:37;;;;;;;9.40;8.40;;;13.90;99.90;;;;;;5073823;28;20463;-59
2023/09/03 03:02:04;;;;;;;10.87;9.70;;;13.80;99.90;;;;;;5074320;28;20450;-59
2023/09/03 03:04:31;;;;;;;11.77;10.57;;;13.80;99.90;;;;;;5074120;28;20455;-59
2023/09/03 03:06:58;;;;;;;12.37;10.30;;;13.70;99.90;;;;;;5074173;28;20443;-59
2023/09/03 03:09:26;;;;;;;12.17;10.57;;;13.70;99.90;;;;;;5073872;28;20459;-59
2023/09/03 03:11:52;;;;;;;11.83;9.80;;;13.60;99.90;;;;;;5074051;28;20439;-60
2023/09/03 03:14:19;;;;;;;12.93;10.90;;;13.60;99.90;;;;;;5073887;28;20443;-59
2023/09/03 03:16:46;;;;;;;14.07;11.70;;;13.60;99.90;;;;;;5074039;28;20446;-59
2023/09/03 03:19:12;;;;;;;13.10;10.90;;;13.60;99.90;;;;;;5073769;28;20513;-60
2023/09/03 03:21:39;;;;;;;17.33;13.17;;;13.60;99.90;;;;;;5073990;28;20420;-59
2023/09/03 03:24:07;;;;;;;14.60;13.10;;;13.60;99.90;;;;;;5073872;28;20439;-59
2023/09/03 03:26:37;;;;;;;15.23;13.20;;;13.70;99.90;;;;;;5073548;28;20823;-60
2023/09/03 03:29:04;;;;;;;16.27;13.77;;;13.70;99.90;;;;;;5073670;28;20995;-60
2023/09/03 03:31:31;;;;;;;16.37;14.30;;;13.70;99.90;;;;;;5073731;28;20498;-59
2023/09/03 03:33:58;;;;;;;18.57;14.87;;;13.70;99.90;;;;;;5073743;28;20439;-59
2023/09/03 03:36:25;;;;;;;17.80;14.90;;;13.70;99.90;;;;;;5073687;28;20437;-61
2023/09/03 03:38:51;;;;;;;18.33;14.63;;;13.70;99.90;;;;;;5073466;28;20486;-59
2023/09/03 03:41:20;;;;;;;21.17;17.07;;;13.70;99.90;;;;;;5073772;28;20435;-59
2023/09/03 03:43:49;;;;;;;17.73;14.40;;;13.70;99.90;;;;;;5073532;28;20458;-60
2023/09/03 03:46:17;;;;;;;21.23;16.30;;;13.70;99.90;;;;;;5073381;28;20447;-60
2023/09/03 03:48:45;;;;;;;19.50;15.80;;;13.70;99.90;;;;;;5073785;28;20467;-60
2023/09/03 03:51:11;;;;;;;22.97;16.77;;;13.70;99.90;;;;;;5074004;28;20775;-60
2023/09/03 03:53:38;;;;;;;23.73;16.70;;;13.60;99.90;;;;;;5074630;28;20446;-59
2023/09/03 03:56:07;;;;;;;23.73;18.27;;;13.60;99.90;;;;;;5073729;28;20443;-58
2023/09/03 03:58:35;;;;;;;26.87;18.20;;;13.60;99.90;;;;;;5073205;28;20486;-60
2023/09/03 04:01:11;;;;;;;21.43;18.40;;;13.50;99.90;;;;;;5073766;28;20445;-59
2023/09/03 04:03:38;;;;;;;25.27;19.00;;;13.50;99.90;;;;;;5072953;28;20419;-58
2023/09/03 04:06:04;;;;;;;21.90;18.03;;;13.50;99.90;;;;;;5073553;28;20476;-59
2023/09/03 04:08:33;;;;;;;23.30;16.70;;;13.50;99.90;;;;;;5073597;28;20943;-59
2023/09/03 04:12:09;;;;;;;21.63;18.20;;;13.50;99.90;;;;;;5112632;27;20601;-60
2023/09/03 04:14:37;;;;;;;24.67;19.00;;;13.50;99.90;;;;;;5113202;28;20441;-60
2023/09/03 04:17:04;;;;;;;25.33;19.27;;;13.50;99.90;;;;;;5113883;28;20499;-60
2023/09/03 04:19:31;;;;;;;24.47;18.87;;;13.40;99.90;;;;;;5112988;28;20991;-60
2023/09/03 04:21:58;;;;;;;25.33;19.07;;;13.40;99.90;;;;;;5112874;28;20438;-60
2023/09/03 04:24:24;;;;;;;22.97;18.73;;;13.40;99.90;;;;;;5112076;28;20437;-60
2023/09/03 04:26:51;;;;;;;26.23;19.60;;;13.40;99.90;;;;;;5112058;28;20445;-59
2023/09/03 04:29:19;;;;;;;21.50;17.40;;;13.40;99.90;;;;;;5111608;28;20461;-59
2023/09/03 04:31:46;;;;;;;25.80;18.27;;;13.30;99.90;;;;;;5111287;28;20986;-60
2023/09/03 04:34:13;;;;;;;23.83;17.97;;;13.30;99.90;;;;;;5111331;28;20437;-59
2023/09/03 04:36:40;;;;;;;22.93;18.73;;;13.30;99.90;;;;;;5111803;28;20449;-59
2023/09/03 04:39:08;;;;;;;29.07;19.23;;;13.20;99.90;;;;;;5114143;28;20469;-60
2023/09/03 04:41:34;;;;;;;24.67;18.80;;;13.20;99.90;;;;;;5119496;28;20448;-59
2023/09/03 04:44:08;;;;;;;23.60;18.70;;;13.20;99.90;;;;;;5118819;28;20437;-59
2023/09/03 04:46:36;;;;;;;25.70;19.33;;;13.20;99.90;;;;;;5119848;28;20445;-58
2023/09/03 04:49:03;;;;;;;24.47;18.57;;;13.20;99.90;;;;;;5117915;28;20800;-59
2023/09/03 04:51:30;;;;;;;24.17;19.70;;;13.20;99.90;;;;;;5119781;28;20484;-60
2023/09/03 04:53:56;;;;;;;24.53;19.07;;;13.20;99.90;;;;;;5121326;28;20434;-60
2023/09/03 04:56:23;;;;;;;25.77;17.70;;;13.20;99.90;;;;;;5121395;28;20437;-60
2023/09/03 04:58:50;;;;;;;27.03;19.30;;;13.30;99.90;;;;;;5124648;28;20473;-57
2023/09/03 05:01:18;;;;;;;25.20;18.37;;;13.30;99.90;;;;;;5123283;28;20438;-58
2023/09/03 05:03:46;;;;;;;26.20;19.57;;;13.30;99.90;;;;;;5123832;28;20448;-59
2023/09/03 05:06:15;;;;;;;25.50;19.50;;;13.40;99.90;;;;;;5123757;28;20449;-59
2023/09/03 05:08:42;;;;;;;24.47;18.73;;;13.40;99.90;;;;;;5123097;28;20469;-58
2023/09/03 05:11:11;;;;;;;23.60;17.80;;;13.50;99.90;;;;;;5123638;28;20476;-59
2023/09/03 05:13:38;;;;;;;24.70;17.93;;;13.50;99.90;;;;;;5124354;28;20442;-58
2023/09/03 05:16:05;;;;;;;21.00;18.10;;;13.60;99.90;;;;;;5104587;28;20469;-60
2023/09/03 05:18:32;;;;;;;19.97;17.17;;;13.60;99.90;;;;;;5098784;28;20877;-60
2023/09/03 05:21:06;;;;;;;19.23;15.37;;;13.60;99.90;;;;;;5091104;28;20434;-60
2023/09/03 05:23:33;;;;;;;24.77;17.40;;;13.70;99.90;;;;;;5076819;28;20481;-61
2023/09/03 05:26:00;;;;;;;26.87;18.90;;;13.70;99.90;;;;;;5076953;28;20450;-59
2023/09/03 05:28:27;;;;;;;21.57;18.20;;;13.70;99.90;;;;;;5077692;28;20447;-60
2023/09/03 05:30:53;;;;;;;24.13;17.27;;;13.70;99.90;;;;;;5078741;28;20478;-60
2023/09/03 05:33:20;;;;;;;25.03;18.17;;;13.70;99.90;;;;;;5076948;28;20443;-59
2023/09/03 05:35:47;;;;;;;23.50;18.70;;;13.80;99.90;;;;;;5077330;28;20450;-60
2023/09/03 05:38:15;;;;;;;21.03;17.90;;;13.80;99.90;;;;;;5077066;28;20443;-60
2023/09/03 05:40:42;;;;;;;20.27;15.60;;;13.80;99.90;;;;;;5076758;28;20459;-60
2023/09/03 05:43:09;;;;;;;25.13;18.53;;;13.80;99.90;;;;;;5077255;28;20439;-60
2023/09/03 05:45:35;;;;;;;23.90;18.33;;;13.90;99.90;;;;;;5077150;28;20439;-61
2023/09/03 05:48:02;;;;;;;20.00;17.53;;;13.90;99.90;;;;;;5079176;28;20525;-59
2023/09/03 05:50:31;;;;;;;22.10;16.80;;;14.00;99.90;;;;;;5077403;28;20474;-60
2023/09/03 05:52:58;;;;;;;21.73;18.07;;;14.00;99.90;;;;;;5076280;28;20447;-60
2023/09/03 05:55:26;;;;;;;21.03;17.07;;;14.10;99.90;;;;;;5077246;28;20443;-60
2023/09/03 05:57:53;;;;;;;21.10;17.27;;;14.10;99.90;;;;;;5077561;28;20439;-60
2023/09/03 06:00:20;;;;;;;25.20;18.77;;;14.20;99.90;;;;;;5085473;28;20463;-61
2023/09/03 06:02:48;;;;;;;18.50;16.50;;;14.20;99.90;;;;;;5086827;28;20466;-59
2023/09/03 06:05:15;;;;;;;20.63;17.60;;;14.30;99.90;;;;;;5080326;28;20478;-60
2023/09/03 06:07:42;;;;;;;23.67;17.30;;;14.30;99.90;;;;;;5078489;28;20959;-59
2023/09/03 06:10:09;;;;;;;22.57;17.57;;;14.30;99.90;;;;;;5078240;28;20463;-60
2023/09/03 06:12:37;;;;;;;20.83;17.70;;;14.40;99.90;;;;;;5076773;28;20474;-60
2023/09/03 06:15:04;;;;;;;23.10;18.20;;;14.50;99.90;;;;;;5075912;28;20439;-60
2023/09/03 06:17:31;;;;;;;20.77;17.73;;;14.50;99.90;;;;;;5077308;28;20522;-60
2023/09/03 06:19:58;;;;;;;19.30;16.67;;;14.50;99.90;;;;;;5075814;28;20467;-61
2023/09/03 06:22:24;;;;;;;21.07;16.70;;;14.50;99.90;;;;;;5077685;28;20455;-61
2023/09/03 06:24:51;;;;;;;23.73;17.80;;;14.50;99.90;;;;;;5075579;28;20435;-60
2023/09/03 06:27:18;;;;;;;21.63;17.53;;;14.40;99.90;;;;;;5076177;28;20447;-59
2023/09/03 06:29:46;;;;;;;20.37;16.77;;;14.40;99.90;;;;;;5075983;28;20459;-60
2023/09/03 06:32:13;;;;;;;21.70;17.87;;;14.40;99.90;;;;;;5076701;28;20486;-60
2023/09/03 06:34:40;;;;;;;22.00;17.30;;;14.50;99.90;;;;;;5075834;28;20439;-61
2023/09/03 06:37:07;;;;;;;22.23;17.13;;;14.60;99.90;;;;;;5076877;28;20448;-60
2023/09/03 06:39:34;;;;;;;21.47;17.70;;;14.70;99.90;;;;;;5075923;28;20471;-58
2023/09/03 06:42:00;;;;;;;23.53;17.97;;;14.80;99.90;;;;;;5075899;28;20454;-61
2023/09/03 06:44:27;;;;;;;18.37;15.70;;;14.90;99.90;;;;;;5075360;28;20440;-60
2023/09/03 06:46:55;;;;;;;21.70;16.00;;;15.00;99.90;;;;;;5075272;28;20447;-60
2023/09/03 06:49:22;;;;;;;17.27;15.40;;;15.10;99.90;;;;;;5075025;28;20459;-59
2023/09/03 06:51:50;;;;;;;19.83;15.97;;;15.10;99.90;;;;;;5074795;28;20474;-59
2023/09/03 06:54:17;;;;;;;17.33;13.97;;;15.30;99.90;;;;;;5075762;28;20450;-60
2023/09/03 06:56:43;;;;;;;14.63;12.97;;;15.40;99.90;;;;;;5074643;28;20842;-60
2023/09/03 06:59:10;;;;;;;14.73;12.77;;;15.60;99.90;;;;;;5075176;28;20463;-60
2023/09/03 07:01:37;;;;;;;14.53;11.73;;;15.70;99.90;;;;;;5075460;28;20439;-59
2023/09/03 07:04:05;;;;;;;14.13;12.23;;;15.80;99.90;;;;;;5095370;28;20472;-60
2023/09/03 07:06:32;;;;;;;13.37;10.63;;;16.00;99.90;;;;;;5095563;28;20449;-59
2023/09/03 07:08:58;;;;;;;16.40;12.63;;;16.10;99.90;;;;;;5095215;28;20828;-58
2023/09/03 07:11:25;;;;;;;12.87;11.63;;;16.20;99.90;;;;;;5095083;28;20493;-59
2023/09/03 07:13:52;;;;;;;12.50;11.20;;;16.20;99.90;;;;;;5096018;28;20442;-59
2023/09/03 07:16:19;;;;;;;12.63;10.20;;;16.30;99.90;;;;;;5094350;28;20438;-58
2023/09/03 07:18:45;;;;;;;10.97;9.33;;;16.30;99.90;;;;;;5094775;28;20493;-59
2023/09/03 07:21:13;;;;;;;11.50;8.50;;;16.30;99.90;;;;;;5094908;28;20465;-58
2023/09/03 07:23:40;;;;;;;13.50;10.30;;;16.40;99.90;;;;;;5095667;28;20956;-59
2023/09/03 07:26:09;;;;;;;10.30;9.20;;;16.50;99.90;;;;;;5095101;28;20457;-60
2023/09/03 07:28:38;;;;;;;10.03;8.43;;;16.60;99.90;;;;;;5081960;28;20443;-60
2023/09/03 07:31:05;;;;;;;10.70;8.83;;;16.70;99.90;;;;;;5074816;28;20466;-60
2023/09/03 07:33:32;;;;;;;8.80;7.47;;;16.90;99.90;;;;;;5075209;28;20490;-60
2023/09/03 07:35:59;;;;;;;8.70;6.87;;;17.10;99.90;;;;;;5074435;28;20435;-61
2023/09/03 07:38:27;;;;;;;9.97;7.90;;;17.20;99.90;;;;;;5095380;28;20958;-61
2023/09/03 07:40:54;;;;;;;7.90;6.67;;;17.30;99.90;;;;;;5100605;28;20442;-61
2023/09/03 07:43:21;;;;;;;8.40;6.47;;;17.40;99.90;;;;;;5094967;28;20442;-60
2023/09/03 07:45:48;;;;;;;6.33;5.73;;;17.50;99.90;;;;;;5096087;28;20446;-60
2023/09/03 07:48:15;;;;;;;11.80;7.13;;;17.70;99.90;;;;;;5095989;28;20444;-59
2023/09/03 07:50:41;;;;;;;6.17;5.57;;;17.70;99.90;;;;;;5095954;28;20461;-60
2023/09/03 07:53:08;;;;;;;9.50;5.17;;;17.80;99.90;;;;;;5095336;28;20489;-61
2023/09/03 07:55:36;;;;;;;5.03;4.00;;;17.80;99.90;;;;;;5094766;28;20442;-59
2023/09/03 07:58:03;;;;;;;6.00;5.23;;;17.80;99.90;;;;;;5094988;28;20477;-60
2023/09/03 08:00:31;;;;;;;6.03;4.97;;;17.80;99.90;;;;;;5084479;28;20466;-59
2023/09/03 08:02:58;;;;;;;5.73;4.97;;;17.90;99.90;;;;;;5075231;28;20504;-60
2023/09/03 08:05:24;;;;;;;12.90;6.73;;;17.90;99.90;;;;;;5078513;28;20446;-60
2023/09/03 08:07:51;;;;;;;8.03;7.23;;;17.90;99.90;;;;;;5080506;28;20440;-60
2023/09/03 08:10:18;;;;;;;6.50;5.90;;;17.90;99.90;;;;;;5083749;28;20478;-58
2023/09/03 08:12:46;;;;;;;6.53;5.93;;;17.90;99.90;;;;;;5083633;28;20534;-60
2023/09/03 08:15:13;;;;;;;6.70;5.93;;;18.00;99.90;;;;;;5082183;28;20435;-60
2023/09/03 08:17:40;;;;;;;6.10;5.40;;;18.10;99.90;;;;;;5083329;28;20447;-59
2023/09/03 08:20:08;;;;;;;6.30;4.80;;;18.10;99.90;;;;;;5079641;28;20911;-60
2023/09/03 08:22:36;;;;;;;6.10;5.37;;;18.20;99.90;;;;;;5080405;28;20531;-60
2023/09/03 08:25:03;;;;;;;6.00;4.53;;;18.40;99.90;;;;;;5081238;28;20443;-60
2023/09/03 08:27:30;;;;;;;5.00;4.50;;;18.40;99.90;;;;;;5081220;28;20443;-59
2023/09/03 08:29:58;;;;;;;6.93;4.40;;;18.60;99.90;;;;;;5081611;28;20463;-60
2023/09/03 08:32:25;;;;;;;6.00;5.43;;;18.80;99.90;;;;;;5076226;28;20482;-60
2023/09/03 08:34:53;;;;;;;5.67;5.10;;;18.90;99.90;;;;;;5073968;28;20454;-60
2023/09/03 08:37:20;;;;;;;5.33;4.83;;;19.00;99.90;;;;;;5073570;28;20945;-59
2023/09/03 08:39:46;;;;;;;5.93;5.37;;;19.00;99.90;;;;;;5074107;28;20537;-60
2023/09/03 08:42:15;;;;;;;8.33;6.43;;;19.10;99.90;;;;;;5075209;28;20445;-59
2023/09/03 08:44:49;;;;;;;8.23;5.00;;;19.10;99.90;;;;;;5074770;28;20469;-60
2023/09/03 08:47:18;;;;;;;5.73;4.50;;;19.30;99.90;;;;;;5075166;28;20935;-60
2023/09/03 08:49:46;;;;;;;6.53;5.03;;;19.30;99.90;;;;;;5077684;28;20540;-60
2023/09/03 08:52:15;;;;;;;5.07;4.20;;;19.40;99.90;;;;;;5085725;28;20467;-60
2023/09/03 08:54:42;;;;;;;4.10;3.70;;;19.40;99.90;;;;;;5077788;28;20451;-58
2023/09/03 08:57:09;;;;;;;5.70;3.90;;;19.40;99.90;;;;;;5075696;28;20443;-60
2023/09/03 08:59:36;;;;;;;4.53;4.00;;;19.60;99.90;;;;;;5078422;28;20462;-60
2023/09/03 09:02:03;;;;;;;3.87;3.07;;;19.60;99.60;;;;;;5079187;28;20462;-60
2023/09/03 09:04:32;;;;;;;10.10;3.70;;;19.60;98.80;;;;;;5078282;28;20462;-60
2023/09/03 09:07:00;;;;;;;5.53;3.70;;;19.50;98.50;;;;;;5093514;28;20442;-60
2023/09/03 09:09:29;;;;;;;4.83;3.00;;;19.60;98.60;;;;;;5098452;28;20462;-59
2023/09/03 09:12:02;;;;;;;3.73;3.20;;;19.60;98.20;;;;;;5098466;28;20547;-59
2023/09/03 09:14:41;;;;;;;5.13;3.23;;;19.70;97.70;;;;;;5091506;28;20442;-60
2023/09/03 09:17:13;;;;;;;4.30;2.93;;;19.70;97.10;;;;;;5093553;28;20433;-59
2023/09/03 09:19:41;;;;;;;5.93;3.87;;;19.80;96.50;;;;;;5097463;28;20461;-59
2023/09/03 09:22:08;;;;;;;4.90;3.77;;;19.90;95.60;;;;;;5098475;28;20448;-60
2023/09/03 09:24:41;;;;;;;4.80;3.00;;;19.90;94.80;;;;;;5097093;28;20441;-59
2023/09/03 09:27:14;;;;;;;3.77;2.90;;;20.00;94.40;;;;;;5097081;28;20896;-60
2023/09/03 09:29:41;;;;;;;4.43;3.30;;;20.10;93.40;;;;;;5096599;28;20475;-59
2023/09/03 09:32:18;;;;;;;5.27;3.13;;;20.20;92.80;;;;;;5096978;28;20569;-61
2023/09/03 09:34:46;;;;;;;4.97;3.10;;;20.40;92.00;;;;;;5097518;28;20434;-60
2023/09/03 09:37:13;;;;;;;3.83;3.00;;;20.60;91.00;;;;;;5097158;28;20995;-60
2023/09/03 09:39:44;;;;;;;3.80;2.93;;;20.70;89.90;;;;;;5083968;28;20867;-61
2023/09/03 09:42:13;;;;;;;3.00;2.60;;;20.80;88.90;;;;;;5096035;28;20442;-59
2023/09/03 09:44:54;;;;;;;4.70;2.97;;;21.00;87.30;;;;;;5087966;28;20968;-60
2023/09/03 09:47:22;;;;;;;2.90;2.40;;;21.00;84.80;;;;;;5089229;28;20439;-60
2023/09/03 09:49:50;;;;;;;4.00;2.40;;;21.10;83.50;;;;;;5077515;28;20833;-59
2023/09/03 09:52:17;;;;;;;3.07;2.73;;;21.10;82.80;;;;;;5083413;28;20477;-60
2023/09/03 09:54:45;;;;;;;3.77;2.67;;;21.10;81.40;;;;;;5097630;28;20449;-60
2023/09/03 09:57:14;;;;;;;2.43;2.23;;;21.10;80.60;;;;;;5097344;28;20453;-58
2023/09/03 09:59:42;;;;;;;4.30;2.80;;;21.20;79.60;;;;;;5099441;28;20461;-60
2023/09/03 10:02:13;;;;;;;4.80;2.97;;;21.20;79.10;;;;;;5099111;28;20438;-60
2023/09/03 10:04:42;;;;;;;3.50;2.47;;;21.20;78.40;;;;;;5089968;28;20498;-61
2023/09/03 10:07:11;;;;;;;3.60;2.00;;;21.30;77.70;;;;;;5077562;28;20451;-60
2023/09/03 10:09:39;;;;;;;3.90;2.10;;;21.30;76.20;;;;;;5075513;28;20463;-59
2023/09/03 10:12:07;;;;;;;2.87;2.00;;;21.30;75.20;;;;;;5076331;28;20474;-60
2023/09/03 10:14:35;;;;;;;2.27;2.03;;;21.40;73.30;;;;;;5091874;28;20457;-60
2023/09/03 10:17:03;;;;;;;2.37;1.97;;;21.40;71.80;;;;;;5085983;28;20891;-60
2023/09/03 10:19:40;;;;;;;2.60;1.77;;;21.40;70.30;;;;;;5097238;28;20469;-60
2023/09/03 10:22:10;;;;;;;5.13;2.70;;;21.40;68.70;;;;;;5082137;28;20462;-60
2023/09/03 10:24:39;;;;;;;2.57;1.73;;;21.50;67.70;;;;;;5088939;28;20486;-61
2023/09/03 10:27:09;;;;;;;1.80;1.43;;;21.50;66.60;;;;;;5097091;28;20438;-59
2023/09/03 10:29:37;;;;;;;4.07;2.03;;;21.60;65.80;;;;;;5097835;28;20889;-61
2023/09/03 10:32:07;;;;;;;1.93;1.77;;;21.70;64.70;;;;;;5098249;28;21016;-60
2023/09/03 10:34:37;;;;;;;3.00;2.00;;;21.80;63.50;;;;;;5078680;28;20439;-60
2023/09/03 10:37:04;;;;;;;12.93;1.97;;;21.80;62.90;;;;;;5079395;28;20455;-60
2023/09/03 10:39:31;;;;;;;3.80;2.17;;;21.60;63.20;;;;;;5091658;28;20454;-61
2023/09/03 10:42:28;;;;;;;1.80;1.53;;;21.60;63.70;;;;;;5095279;28;20567;-60
2023/09/03 10:44:56;;;;;;;2.53;1.77;;;21.60;63.00;;;;;;5093393;28;20435;-60
2023/09/03 10:47:22;;;;;;;2.00;1.80;;;21.60;62.10;;;;;;5095542;28;20442;-60
2023/09/03 10:49:51;;;;;;;3.13;1.50;;;21.70;61.40;;;;;;5095687;28;20462;-60
2023/09/03 10:52:40;;;;;;;2.70;1.73;;;22.00;60.50;;;;;;5094915;28;20484;-61
2023/09/03 10:55:11;;;;;;;2.67;1.60;;;22.00;60.20;;;;;;5096063;28;20410;-60
2023/09/03 10:57:40;;;;;;;2.70;1.90;;;22.10;60.10;;;;;;5096419;28;20476;-60
2023/09/03 11:00:09;;;;;;;2.40;1.70;;;22.20;60.00;;;;;;5096062;28;20465;-58
2023/09/03 11:02:37;;;;;;;1.97;1.77;;;22.20;59.70;;;;;;5095130;28;20808;-60
2023/09/03 11:05:14;;;;;;;3.37;2.23;;;22.20;59.30;;;;;;5095080;28;20445;-59
2023/09/03 11:07:41;;;;;;;2.70;1.67;;;22.00;59.00;;;;;;5094672;28;20903;-60
2023/09/03 11:10:42;;;;;;;2.37;2.17;;;21.90;59.60;;;;;;5078639;28;20471;-60
2023/09/03 11:13:12;;;;;;;4.40;1.87;;;22.00;60.10;;;;;;5074467;28;21030;-60
2023/09/03 11:15:48;;;;;;;3.53;2.40;;;21.90;60.10;;;;;;5076224;28;20925;-60
2023/09/03 11:18:19;;;;;;;2.40;2.00;;;21.90;60.50;;;;;;5075933;28;20422;-60
2023/09/03 11:20:47;;;;;;;3.20;2.63;;;21.70;61.50;;;;;;5076311;28;20508;-59
2023/09/03 11:23:14;;;;;;;2.40;1.83;;;21.70;61.00;;;;;;5084383;28;20491;-61
2023/09/03 11:25:41;;;;;;;2.30;1.80;;;21.70;60.50;;;;;;5088224;28;20442;-60
2023/09/03 11:28:12;;;;;;;2.50;1.77;;;21.70;60.00;;;;;;5095065;28;20446;-61
2023/09/03 11:30:40;;;;;;;3.77;1.80;;;21.80;59.10;;;;;;5079826;28;20462;-61
2023/09/03 11:33:08;;;;;;;2.47;2.00;;;22.00;58.70;;;;;;5076645;28;20557;-61
2023/09/03 11:35:46;;;;;;;3.13;1.60;;;22.10;58.40;;;;;;5075614;28;20538;-61
2023/09/03 11:38:13;;;;;;;3.73;1.90;;;22.20;58.00;;;;;;5075436;28;20453;-60
2023/09/03 11:40:41;;;;;;;2.73;1.80;;;22.30;57.80;;;;;;5074604;28;20454;-59
2023/09/03 11:43:12;;;;;;;2.60;1.57;;;22.20;57.20;;;;;;5074338;28;20785;-60
2023/09/03 11:45:39;;;;;;;2.27;1.83;;;22.30;57.20;;;;;;5074164;28;20860;-61
2023/09/03 11:48:07;;;;;;;3.20;2.30;;;22.20;57.70;;;;;;5074645;28;20446;-61
2023/09/03 11:50:35;;;;;;;2.60;2.10;;;22.20;58.20;;;;;;5075545;28;20889;-60
2023/09/03 11:53:04;;;;;;;1.70;1.60;;;22.20;58.40;;;;;;5077880;28;20559;-61
2023/09/03 11:55:35;;;;;;;2.23;1.60;;;22.20;58.50;;;;;;5074217;28;20475;-60
2023/09/03 11:58:04;;;;;;;4.80;1.70;;;22.20;58.00;;;;;;5074095;28;20438;-60
2023/09/03 12:00:33;;;;;;;2.50;1.50;;;22.30;57.00;;;;;;5074271;28;20455;-60
2023/09/03 12:03:01;;;;;;;4.10;2.30;;;22.20;56.60;;;;;;5074285;28;20446;-60
2023/09/03 12:05:28;;;;;;;3.30;1.37;;;22.20;56.40;;;;;;5074083;28;20447;-61
2023/09/03 12:08:01;;;;;;;3.10;1.80;;;22.30;56.20;;;;;;5075002;28;20501;-59
2023/09/03 12:10:28;;;;;;;1.77;1.53;;;22.30;55.60;;;;;;5075180;28;20467;-59
2023/09/03 12:12:55;;;;;;;3.17;1.60;;;22.30;55.50;;;;;;5075886;28;20479;-62
2023/09/03 12:15:23;;;;;;;2.47;1.63;;;22.30;55.40;;;;;;5079965;28;20960;-61
2023/09/03 12:17:51;;;;;;;2.80;1.73;;;22.40;55.50;;;;;;5082126;28;20486;-61
2023/09/03 12:22:43;;;;;;;2.17;1.50;;;22.70;54.90;;;;;;5055236;22;20495;-60
2023/09/03 12:25:10;;;;;;;2.23;1.50;;;22.70;54.20;;;;;;5033310;28;20206;-60
2023/09/03 12:27:48;;;;;;;2.00;1.70;;;22.60;53.70;;;;;;5033229;28;20441;-59
2023/09/03 12:30:16;;;;;;;2.33;1.47;;;22.50;53.40;;;;;;5033234;28;20428;-61
2023/09/03 12:32:43;;;;;;;2.00;1.23;;;22.40;53.00;;;;;;5035239;28;20520;-60
2023/09/03 12:35:18;;;;;;;1.70;1.40;;;22.30;53.20;;;;;;5037712;28;20447;-61
2023/09/03 12:37:45;;;;;;;1.87;1.60;;;22.40;53.30;;;;;;5037407;28;20444;-62
2023/09/03 12:40:12;;;;;;;1.53;1.43;;;22.30;53.00;;;;;;5037510;28;20456;-61
2023/09/03 12:42:39;;;;;;;1.97;1.77;;;22.30;53.00;;;;;;5037379;28;21022;-60
2023/09/03 12:45:07;;;;;;;1.90;1.70;;;22.30;52.60;;;;;;5037245;28;20950;-61